هرات, افغانستان

02:23 PM AFT on نوامبر 22, 2014 (GMT +0430)
Herat | Change Station
CLOSE
Current Station
Airport
Location: Herat,
Elevation: 3163 ft
Nearby Weather Stations

Elev 3163 ft 34.21 °N, 62.23 °E | Updated 58 minutes ago

Clear
صاف
59 °F
Feels Like 59 °F
N
2
باد متغير باد from جنوب غربی

امروز
High -- | Low -- °F
--% Chance of Precip.
دیروز
High -- | Low -- °F
Precip. -- در
7:00 AM 5:13 PM
Waning Crescent, 0% visible
فشار 30.12 در
ديد -9999.0 مايل، ميل (در برابر كيلومتر
ابری
قطره شبنم 27 °F
رطوبت 29%
بارش باران 0.00 در
برف عمیق Not available.
مادون قرمز Not available.
Pollen Not available.
تمیزی هوا Not available.
Flu Activity Not available.
METAR OAHR 220855Z 22002KT CAVOK 15/M03 Q1020 RMK SCT SCT200 VIS MIN 9999 BLU

More Conditions Fewer Conditions

فشار 30.12 در
ديد -9999.0 مايل، ميل (در برابر كيلومتر
ابری
قطره شبنم 27 °F
رطوبت 29%
بارش باران 0.00 در
برف عمیق Not available.
مادون قرمز Not available.
Pollen Not available.
تمیزی هوا Not available.
Flu Activity Not available.
METAR OAHR 220855Z 22002KT CAVOK 15/M03 Q1020 RMK SCT SCT200 VIS MIN 9999 BLU

More Conditions Fewer Conditions

10-Day Weather Forecast

Almanac

ستاره شناسی

Nov. 22, 2014 Rise Set
وقت حقیقی
تاریک و روشن اجتماعی
تاریک روشن دریایی
شفق و فلق نجومی
ماه
میزان روشنایی روز
طول روز
Tomorrow will be .
, % of the Moon is Illuminated

Today's Extremes

Country Highs Country Lows

Community

WunderPhotos

Upload Photos

1,772,797 photos uploaded!

WunderBlogs® & News

Nearby

تمیزی هوا

  تمیزی هوا AQ Index آلاینده
Not available.

عمق برف

Station Depth Elevation

Earthquake Activity

شهر Distance Mag. Time & Date
Minimum magnitude displayed is 2.5.

Coastal Water Temperatures

منطقه درجه حرارت

Nearby Weather Stations